sensor_id;sensor_type;location;lat;lon;timestamp;temperature;humidity
546;DHT22;259;53.304;9.816;2023-02-28T00:00:29;13.10;60.70
546;DHT22;259;53.304;9.816;2023-02-28T00:02:55;13.10;60.60
546;DHT22;259;53.304;9.816;2023-02-28T00:05:23;13.00;60.60
546;DHT22;259;53.304;9.816;2023-02-28T00:07:50;13.00;60.60
546;DHT22;259;53.304;9.816;2023-02-28T00:10:19;13.00;60.60
546;DHT22;259;53.304;9.816;2023-02-28T00:12:50;13.00;60.70
546;DHT22;259;53.304;9.816;2023-02-28T00:15:16;13.00;60.80
546;DHT22;259;53.304;9.816;2023-02-28T00:17:43;12.90;60.80
546;DHT22;259;53.304;9.816;2023-02-28T00:20:10;12.90;60.80
546;DHT22;259;53.304;9.816;2023-02-28T00:22:39;12.90;60.80
546;DHT22;259;53.304;9.816;2023-02-28T00:25:07;12.90;60.90
546;DHT22;259;53.304;9.816;2023-02-28T00:27:36;12.80;60.80
546;DHT22;259;53.304;9.816;2023-02-28T00:30:03;12.80;60.90
546;DHT22;259;53.304;9.816;2023-02-28T00:32:30;12.80;60.90
546;DHT22;259;53.304;9.816;2023-02-28T00:34:55;12.80;60.90
546;DHT22;259;53.304;9.816;2023-02-28T00:37:21;12.80;61.00
546;DHT22;259;53.304;9.816;2023-02-28T00:39:47;12.80;61.00
546;DHT22;259;53.304;9.816;2023-02-28T00:42:13;12.70;60.90
546;DHT22;259;53.304;9.816;2023-02-28T00:44:39;12.70;61.00
546;DHT22;259;53.304;9.816;2023-02-28T00:47:04;12.70;61.10
546;DHT22;259;53.304;9.816;2023-02-28T00:49:30;12.70;61.10
546;DHT22;259;53.304;9.816;2023-02-28T00:51:56;12.60;61.00
546;DHT22;259;53.304;9.816;2023-02-28T00:54:22;12.60;60.90
546;DHT22;259;53.304;9.816;2023-02-28T00:56:49;12.60;61.10
546;DHT22;259;53.304;9.816;2023-02-28T00:59:16;12.60;61.20
546;DHT22;259;53.304;9.816;2023-02-28T01:01:44;12.60;61.30
546;DHT22;259;53.304;9.816;2023-02-28T01:04:11;12.50;61.00
546;DHT22;259;53.304;9.816;2023-02-28T01:06:37;12.50;61.30
546;DHT22;259;53.304;9.816;2023-02-28T01:09:04;12.50;61.20
546;DHT22;259;53.304;9.816;2023-02-28T01:11:31;12.50;61.30
546;DHT22;259;53.304;9.816;2023-02-28T01:13:57;12.50;61.20
546;DHT22;259;53.304;9.816;2023-02-28T01:16:23;12.40;61.20
546;DHT22;259;53.304;9.816;2023-02-28T01:18:49;12.40;61.30
546;DHT22;259;53.304;9.816;2023-02-28T01:21:17;12.40;61.30
546;DHT22;259;53.304;9.816;2023-02-28T01:23:44;12.40;61.40
546;DHT22;259;53.304;9.816;2023-02-28T01:26:18;12.40;61.50
546;DHT22;259;53.304;9.816;2023-02-28T01:28:47;12.30;61.30
546;DHT22;259;53.304;9.816;2023-02-28T01:31:13;12.30;61.30
546;DHT22;259;53.304;9.816;2023-02-28T01:33:39;12.30;61.40
546;DHT22;259;53.304;9.816;2023-02-28T01:36:09;12.30;61.50
546;DHT22;259;53.304;9.816;2023-02-28T01:38:36;12.20;61.40
546;DHT22;259;53.304;9.816;2023-02-28T01:41:03;12.20;61.60
546;DHT22;259;53.304;9.816;2023-02-28T01:44:05;12.20;61.60
546;DHT22;259;53.304;9.816;2023-02-28T01:46:34;12.20;61.50
546;DHT22;259;53.304;9.816;2023-02-28T01:49:14;12.20;61.40
546;DHT22;259;53.304;9.816;2023-02-28T01:51:46;12.20;61.40
546;DHT22;259;53.304;9.816;2023-02-28T01:54:34;12.20;61.20
546;DHT22;259;53.304;9.816;2023-02-28T01:57:11;12.10;61.40
546;DHT22;259;53.304;9.816;2023-02-28T02:02:27;12.10;61.40
546;DHT22;259;53.304;9.816;2023-02-28T02:05:10;12.10;61.40
546;DHT22;259;53.304;9.816;2023-02-28T02:07:40;12.10;61.50
546;DHT22;259;53.304;9.816;2023-02-28T02:13:22;12.10;61.50
546;DHT22;259;53.304;9.816;2023-02-28T02:16:22;12.00;61.20
546;DHT22;259;53.304;9.816;2023-02-28T02:24:40;12.00;61.20
546;DHT22;259;53.304;9.816;2023-02-28T02:40:03;11.80;61.40
546;DHT22;259;53.304;9.816;2023-02-28T02:45:39;11.80;61.70
546;DHT22;259;53.304;9.816;2023-02-28T02:48:12;11.80;61.50
546;DHT22;259;53.304;9.816;2023-02-28T02:50:45;11.70;61.50
546;DHT22;259;53.304;9.816;2023-02-28T02:53:14;11.70;61.50
546;DHT22;259;53.304;9.816;2023-02-28T02:55:45;11.70;61.60
546;DHT22;259;53.304;9.816;2023-02-28T02:58:15;11.70;61.50
546;DHT22;259;53.304;9.816;2023-02-28T03:00:49;11.70;61.80
546;DHT22;259;53.304;9.816;2023-02-28T03:03:19;11.60;61.50
546;DHT22;259;53.304;9.816;2023-02-28T03:05:56;11.60;61.70
546;DHT22;259;53.304;9.816;2023-02-28T03:08:22;11.60;61.70
546;DHT22;259;53.304;9.816;2023-02-28T03:10:51;11.60;61.90
546;DHT22;259;53.304;9.816;2023-02-28T03:19:01;11.50;61.80
546;DHT22;259;53.304;9.816;2023-02-28T03:21:38;11.50;61.80
546;DHT22;259;53.304;9.816;2023-02-28T03:27:09;11.50;62.00
546;DHT22;259;53.304;9.816;2023-02-28T03:29:47;11.50;62.00
546;DHT22;259;53.304;9.816;2023-02-28T03:35:42;11.40;61.90
546;DHT22;259;53.304;9.816;2023-02-28T03:38:31;11.40;62.10
546;DHT22;259;53.304;9.816;2023-02-28T03:41:10;11.30;61.90
546;DHT22;259;53.304;9.816;2023-02-28T03:43:43;11.30;62.10
546;DHT22;259;53.304;9.816;2023-02-28T03:46:15;11.30;62.10
546;DHT22;259;53.304;9.816;2023-02-28T03:48:51;11.30;62.30
546;DHT22;259;53.304;9.816;2023-02-28T03:51:22;11.20;62.20
546;DHT22;259;53.304;9.816;2023-02-28T03:54:06;11.20;62.10
546;DHT22;259;53.304;9.816;2023-02-28T03:56:41;11.20;62.30
546;DHT22;259;53.304;9.816;2023-02-28T03:59:26;11.20;62.20
546;DHT22;259;53.304;9.816;2023-02-28T04:01:54;11.20;62.40
546;DHT22;259;53.304;9.816;2023-02-28T04:04:21;11.20;62.30
546;DHT22;259;53.304;9.816;2023-02-28T04:06:50;11.10;62.20
546;DHT22;259;53.304;9.816;2023-02-28T04:09:17;11.10;62.40
546;DHT22;259;53.304;9.816;2023-02-28T04:11:49;11.10;62.30
546;DHT22;259;53.304;9.816;2023-02-28T04:14:21;11.10;62.40
546;DHT22;259;53.304;9.816;2023-02-28T04:16:47;11.00;62.30
546;DHT22;259;53.304;9.816;2023-02-28T04:19:13;11.10;62.60
546;DHT22;259;53.304;9.816;2023-02-28T04:21:44;11.00;62.60
546;DHT22;259;53.304;9.816;2023-02-28T04:24:16;11.00;62.60
546;DHT22;259;53.304;9.816;2023-02-28T04:26:48;11.00;62.60
546;DHT22;259;53.304;9.816;2023-02-28T04:29:19;11.00;62.60
546;DHT22;259;53.304;9.816;2023-02-28T04:31:58;11.00;62.50
546;DHT22;259;53.304;9.816;2023-02-28T04:34:25;10.90;62.60
546;DHT22;259;53.304;9.816;2023-02-28T04:36:52;10.90;62.60
546;DHT22;259;53.304;9.816;2023-02-28T04:39:22;10.90;62.40
546;DHT22;259;53.304;9.816;2023-02-28T04:41:49;10.90;62.70
546;DHT22;259;53.304;9.816;2023-02-28T04:44:15;10.90;62.50
546;DHT22;259;53.304;9.816;2023-02-28T04:46:42;10.80;62.50
546;DHT22;259;53.304;9.816;2023-02-28T04:49:11;10.80;62.60
546;DHT22;259;53.304;9.816;2023-02-28T04:51:37;10.80;62.50
546;DHT22;259;53.304;9.816;2023-02-28T04:54:03;10.80;62.50
546;DHT22;259;53.304;9.816;2023-02-28T04:56:29;10.80;62.60
546;DHT22;259;53.304;9.816;2023-02-28T04:58:54;10.80;62.60
546;DHT22;259;53.304;9.816;2023-02-28T05:01:32;10.70;62.50
546;DHT22;259;53.304;9.816;2023-02-28T05:04:00;10.70;62.60
546;DHT22;259;53.304;9.816;2023-02-28T05:06:28;10.70;62.60
546;DHT22;259;53.304;9.816;2023-02-28T05:08:55;10.70;62.80
546;DHT22;259;53.304;9.816;2023-02-28T05:11:27;10.70;62.50
546;DHT22;259;53.304;9.816;2023-02-28T05:13:59;10.60;62.60
546;DHT22;259;53.304;9.816;2023-02-28T05:16:24;10.60;63.50
546;DHT22;259;53.304;9.816;2023-02-28T05:18:50;10.60;62.80
546;DHT22;259;53.304;9.816;2023-02-28T05:21:23;10.60;62.70
546;DHT22;259;53.304;9.816;2023-02-28T05:23:49;10.60;62.80
546;DHT22;259;53.304;9.816;2023-02-28T05:26:15;10.60;62.80
546;DHT22;259;53.304;9.816;2023-02-28T05:28:41;10.50;62.80
546;DHT22;259;53.304;9.816;2023-02-28T05:31:10;10.50;63.00
546;DHT22;259;53.304;9.816;2023-02-28T05:33:36;10.50;63.00
546;DHT22;259;53.304;9.816;2023-02-28T05:36:02;10.50;63.00
546;DHT22;259;53.304;9.816;2023-02-28T05:38:28;10.50;62.90
546;DHT22;259;53.304;9.816;2023-02-28T05:40:54;10.50;62.90
546;DHT22;259;53.304;9.816;2023-02-28T05:43:19;10.50;62.90
546;DHT22;259;53.304;9.816;2023-02-28T05:45:45;10.40;63.20
546;DHT22;259;53.304;9.816;2023-02-28T05:48:11;10.40;63.00
546;DHT22;259;53.304;9.816;2023-02-28T05:50:36;10.40;63.20
546;DHT22;259;53.304;9.816;2023-02-28T05:53:02;10.40;63.20
546;DHT22;259;53.304;9.816;2023-02-28T05:55:28;10.40;63.40
546;DHT22;259;53.304;9.816;2023-02-28T05:57:54;10.30;63.10
546;DHT22;259;53.304;9.816;2023-02-28T06:00:21;10.30;63.20
546;DHT22;259;53.304;9.816;2023-02-28T06:02:47;10.30;63.10
546;DHT22;259;53.304;9.816;2023-02-28T06:05:17;10.30;63.10
546;DHT22;259;53.304;9.816;2023-02-28T06:07:43;10.30;63.10
546;DHT22;259;53.304;9.816;2023-02-28T06:10:11;10.20;63.00
546;DHT22;259;53.304;9.816;2023-02-28T06:12:37;10.30;63.20
546;DHT22;259;53.304;9.816;2023-02-28T06:15:03;10.20;63.20
546;DHT22;259;53.304;9.816;2023-02-28T06:17:29;10.20;63.20
546;DHT22;259;53.304;9.816;2023-02-28T06:19:55;10.20;63.00
546;DHT22;259;53.304;9.816;2023-02-28T06:22:21;10.20;63.20
546;DHT22;259;53.304;9.816;2023-02-28T06:24:46;10.10;63.20
546;DHT22;259;53.304;9.816;2023-02-28T06:27:12;10.10;63.10
546;DHT22;259;53.304;9.816;2023-02-28T06:29:38;10.10;63.20
546;DHT22;259;53.304;9.816;2023-02-28T06:32:07;10.10;63.00
546;DHT22;259;53.304;9.816;2023-02-28T06:34:33;10.10;63.30
546;DHT22;259;53.304;9.816;2023-02-28T06:37:01;10.10;63.20
546;DHT22;259;53.304;9.816;2023-02-28T06:39:29;10.10;63.30
546;DHT22;259;53.304;9.816;2023-02-28T06:41:55;10.00;63.30
546;DHT22;259;53.304;9.816;2023-02-28T06:44:20;10.00;63.80
546;DHT22;259;53.304;9.816;2023-02-28T06:46:47;10.00;63.10
546;DHT22;259;53.304;9.816;2023-02-28T06:49:13;10.00;63.20
546;DHT22;259;53.304;9.816;2023-02-28T06:51:41;10.00;63.20
546;DHT22;259;53.304;9.816;2023-02-28T06:54:10;10.00;63.30
546;DHT22;259;53.304;9.816;2023-02-28T06:56:37;9.90;64.40
546;DHT22;259;53.304;9.816;2023-02-28T06:59:03;9.90;64.30
546;DHT22;259;53.304;9.816;2023-02-28T07:01:29;9.90;64.60
546;DHT22;259;53.304;9.816;2023-02-28T07:03:57;9.90;64.70
546;DHT22;259;53.304;9.816;2023-02-28T07:06:25;9.90;64.50
546;DHT22;259;53.304;9.816;2023-02-28T07:08:52;9.90;64.70
546;DHT22;259;53.304;9.816;2023-02-28T07:11:19;9.90;64.50
546;DHT22;259;53.304;9.816;2023-02-28T07:13:48;9.80;64.50
546;DHT22;259;53.304;9.816;2023-02-28T07:16:14;9.80;64.80
546;DHT22;259;53.304;9.816;2023-02-28T07:18:40;9.80;64.70
546;DHT22;259;53.304;9.816;2023-02-28T07:21:08;9.80;65.30
546;DHT22;259;53.304;9.816;2023-02-28T07:23:35;9.90;65.70
546;DHT22;259;53.304;9.816;2023-02-28T07:26:03;9.90;66.50
546;DHT22;259;53.304;9.816;2023-02-28T07:28:30;10.00;64.50
546;DHT22;259;53.304;9.816;2023-02-28T07:30:55;10.20;64.90
546;DHT22;259;53.304;9.816;2023-02-28T07:33:21;10.40;64.70
546;DHT22;259;53.304;9.816;2023-02-28T07:35:47;10.80;64.20
546;DHT22;259;53.304;9.816;2023-02-28T07:38:13;11.30;62.50
546;DHT22;259;53.304;9.816;2023-02-28T07:40:39;11.90;60.50
546;DHT22;259;53.304;9.816;2023-02-28T07:43:05;12.50;59.30
546;DHT22;259;53.304;9.816;2023-02-28T07:45:31;13.00;58.10
546;DHT22;259;53.304;9.816;2023-02-28T07:47:59;13.60;57.20
546;DHT22;259;53.304;9.816;2023-02-28T07:50:25;14.20;56.40
546;DHT22;259;53.304;9.816;2023-02-28T07:52:52;14.70;55.70
546;DHT22;259;53.304;9.816;2023-02-28T07:55:18;15.10;55.00
546;DHT22;259;53.304;9.816;2023-02-28T07:57:44;15.50;54.50
546;DHT22;259;53.304;9.816;2023-02-28T08:00:11;15.90;54.10
546;DHT22;259;53.304;9.816;2023-02-28T08:02:38;16.20;53.60
546;DHT22;259;53.304;9.816;2023-02-28T08:05:04;16.50;53.30
546;DHT22;259;53.304;9.816;2023-02-28T08:07:31;16.70;53.00
546;DHT22;259;53.304;9.816;2023-02-28T08:09:57;16.90;52.70
546;DHT22;259;53.304;9.816;2023-02-28T08:12:23;17.20;52.50
546;DHT22;259;53.304;9.816;2023-02-28T08:14:49;17.50;52.40
546;DHT22;259;53.304;9.816;2023-02-28T08:17:14;17.70;52.10
546;DHT22;259;53.304;9.816;2023-02-28T08:19:40;18.00;52.00
546;DHT22;259;53.304;9.816;2023-02-28T08:22:06;18.20;51.90
546;DHT22;259;53.304;9.816;2023-02-28T08:24:31;18.30;51.30
546;DHT22;259;53.304;9.816;2023-02-28T08:26:58;18.40;51.30
546;DHT22;259;53.304;9.816;2023-02-28T08:29:24;18.40;51.30
546;DHT22;259;53.304;9.816;2023-02-28T08:31:49;18.40;56.20
546;DHT22;259;53.304;9.816;2023-02-28T08:34:16;18.40;53.40
546;DHT22;259;53.304;9.816;2023-02-28T08:36:42;18.30;53.50
546;DHT22;259;53.304;9.816;2023-02-28T08:39:10;18.30;53.60
546;DHT22;259;53.304;9.816;2023-02-28T08:41:36;18.30;53.60
546;DHT22;259;53.304;9.816;2023-02-28T08:44:02;18.30;53.70
546;DHT22;259;53.304;9.816;2023-02-28T08:46:28;18.20;53.90
546;DHT22;259;53.304;9.816;2023-02-28T08:48:55;18.20;54.00
546;DHT22;259;53.304;9.816;2023-02-28T08:51:24;18.10;54.10
546;DHT22;259;53.304;9.816;2023-02-28T08:53:58;18.00;54.20
546;DHT22;259;53.304;9.816;2023-02-28T08:56:25;17.90;54.30
546;DHT22;259;53.304;9.816;2023-02-28T08:58:54;17.80;54.50
546;DHT22;259;53.304;9.816;2023-02-28T09:01:26;17.80;54.50
546;DHT22;259;53.304;9.816;2023-02-28T09:03:54;17.90;54.40
546;DHT22;259;53.304;9.816;2023-02-28T09:06:23;18.20;54.20
546;DHT22;259;53.304;9.816;2023-02-28T09:08:49;18.50;53.80
546;DHT22;259;53.304;9.816;2023-02-28T09:11:16;18.90;53.40
546;DHT22;259;53.304;9.816;2023-02-28T09:13:42;19.30;53.00
546;DHT22;259;53.304;9.816;2023-02-28T09:16:10;19.60;52.50
546;DHT22;259;53.304;9.816;2023-02-28T09:18:38;20.10;51.80
546;DHT22;259;53.304;9.816;2023-02-28T09:21:09;20.40;51.30
546;DHT22;259;53.304;9.816;2023-02-28T09:23:38;20.60;51.00
546;DHT22;259;53.304;9.816;2023-02-28T09:26:04;21.00;50.60
546;DHT22;259;53.304;9.816;2023-02-28T09:28:30;21.20;50.60
546;DHT22;259;53.304;9.816;2023-02-28T09:30:56;21.40;50.30
546;DHT22;259;53.304;9.816;2023-02-28T09:33:25;21.60;50.10
546;DHT22;259;53.304;9.816;2023-02-28T09:35:58;21.80;50.10
546;DHT22;259;53.304;9.816;2023-02-28T09:38:26;21.90;49.80
546;DHT22;259;53.304;9.816;2023-02-28T09:40:58;22.10;49.60
546;DHT22;259;53.304;9.816;2023-02-28T09:43:29;22.30;49.50
546;DHT22;259;53.304;9.816;2023-02-28T09:46:17;22.30;49.50
546;DHT22;259;53.304;9.816;2023-02-28T09:49:02;22.40;49.50
546;DHT22;259;53.304;9.816;2023-02-28T09:54:15;22.40;49.40
546;DHT22;259;53.304;9.816;2023-02-28T09:56:45;22.30;49.50
546;DHT22;259;53.304;9.816;2023-02-28T09:59:36;22.30;49.60
546;DHT22;259;53.304;9.816;2023-02-28T10:05:15;22.20;49.50
546;DHT22;259;53.304;9.816;2023-02-28T10:08:03;22.10;49.70
546;DHT22;259;53.304;9.816;2023-02-28T10:10:48;21.90;49.80
546;DHT22;259;53.304;9.816;2023-02-28T10:13:46;21.80;50.20
546;DHT22;259;53.304;9.816;2023-02-28T10:16:22;21.50;50.40
546;DHT22;259;53.304;9.816;2023-02-28T10:18:55;21.40;50.60
546;DHT22;259;53.304;9.816;2023-02-28T10:21:34;21.30;50.90
546;DHT22;259;53.304;9.816;2023-02-28T10:24:15;21.10;51.00
546;DHT22;259;53.304;9.816;2023-02-28T10:27:13;21.00;51.30
546;DHT22;259;53.304;9.816;2023-02-28T10:29:43;20.80;51.50
546;DHT22;259;53.304;9.816;2023-02-28T10:32:20;20.60;51.40
546;DHT22;259;53.304;9.816;2023-02-28T10:37:39;20.30;51.40
546;DHT22;259;53.304;9.816;2023-02-28T10:40:33;20.20;51.60
546;DHT22;259;53.304;9.816;2023-02-28T10:43:03;20.20;51.60
546;DHT22;259;53.304;9.816;2023-02-28T10:45:34;20.10;51.50
546;DHT22;259;53.304;9.816;2023-02-28T10:58:59;20.10;51.50
546;DHT22;259;53.304;9.816;2023-02-28T11:04:23;20.30;51.30
546;DHT22;259;53.304;9.816;2023-02-28T11:07:19;20.40;51.10
546;DHT22;259;53.304;9.816;2023-02-28T11:09:49;20.60;50.90
546;DHT22;259;53.304;9.816;2023-02-28T11:12:38;20.90;50.70
546;DHT22;259;53.304;9.816;2023-02-28T11:15:21;21.10;50.40
546;DHT22;259;53.304;9.816;2023-02-28T11:18:06;21.30;49.90
546;DHT22;259;53.304;9.816;2023-02-28T11:20:55;21.60;49.90
546;DHT22;259;53.304;9.816;2023-02-28T11:23:25;21.80;50.00
546;DHT22;259;53.304;9.816;2023-02-28T11:25:56;22.00;49.90
546;DHT22;259;53.304;9.816;2023-02-28T11:28:25;22.10;49.90
546;DHT22;259;53.304;9.816;2023-02-28T11:31:15;22.30;49.90
546;DHT22;259;53.304;9.816;2023-02-28T11:36:35;22.40;49.80
546;DHT22;259;53.304;9.816;2023-02-28T11:39:11;22.50;49.70
546;DHT22;259;53.304;9.816;2023-02-28T11:50:54;22.40;50.50
546;DHT22;259;53.304;9.816;2023-02-28T11:56:47;22.30;51.20
546;DHT22;259;53.304;9.816;2023-02-28T11:59:36;22.10;51.40
546;DHT22;259;53.304;9.816;2023-02-28T12:02:24;22.00;51.80
546;DHT22;259;53.304;9.816;2023-02-28T12:05:18;21.90;52.10
546;DHT22;259;53.304;9.816;2023-02-28T12:08:02;21.80;52.50
546;DHT22;259;53.304;9.816;2023-02-28T12:20:05;21.30;52.80
546;DHT22;259;53.304;9.816;2023-02-28T12:28:11;20.90;54.20
546;DHT22;259;53.304;9.816;2023-02-28T12:30:48;20.80;53.70
546;DHT22;259;53.304;9.816;2023-02-28T12:33:23;20.70;53.90
546;DHT22;259;53.304;9.816;2023-02-28T12:35:58;20.60;54.10
546;DHT22;259;53.304;9.816;2023-02-28T12:38:34;20.50;54.40
546;DHT22;259;53.304;9.816;2023-02-28T12:43:46;20.30;54.70
546;DHT22;259;53.304;9.816;2023-02-28T12:46:21;20.20;55.00
546;DHT22;259;53.304;9.816;2023-02-28T12:48:56;20.10;55.10
546;DHT22;259;53.304;9.816;2023-02-28T12:51:24;20.00;55.30
546;DHT22;259;53.304;9.816;2023-02-28T12:54:12;20.00;55.50
546;DHT22;259;53.304;9.816;2023-02-28T12:59:38;19.80;55.60
546;DHT22;259;53.304;9.816;2023-02-28T13:05:15;19.80;56.10
546;DHT22;259;53.304;9.816;2023-02-28T13:10:46;19.80;56.50
546;DHT22;259;53.304;9.816;2023-02-28T13:13:25;19.70;56.60
546;DHT22;259;53.304;9.816;2023-02-28T13:16:02;19.70;56.70
546;DHT22;259;53.304;9.816;2023-02-28T13:18:38;19.70;57.10
546;DHT22;259;53.304;9.816;2023-02-28T13:21:21;19.70;57.20
546;DHT22;259;53.304;9.816;2023-02-28T13:26:21;19.70;57.50
546;DHT22;259;53.304;9.816;2023-02-28T13:28:58;19.70;57.60
546;DHT22;259;53.304;9.816;2023-02-28T13:31:26;19.60;57.80
546;DHT22;259;53.304;9.816;2023-02-28T13:36:31;19.60;58.40
546;DHT22;259;53.304;9.816;2023-02-28T13:38:59;19.60;58.60
546;DHT22;259;53.304;9.816;2023-02-28T13:44:13;19.60;58.60
546;DHT22;259;53.304;9.816;2023-02-28T13:49:33;19.60;57.90
546;DHT22;259;53.304;9.816;2023-02-28T13:54:54;19.50;57.30
546;DHT22;259;53.304;9.816;2023-02-28T13:57:59;19.50;57.20
546;DHT22;259;53.304;9.816;2023-02-28T14:06:28;19.50;57.80
546;DHT22;259;53.304;9.816;2023-02-28T14:09:02;19.40;58.00
546;DHT22;259;53.304;9.816;2023-02-28T14:11:38;19.50;58.50
546;DHT22;259;53.304;9.816;2023-02-28T14:14:08;19.40;58.60
546;DHT22;259;53.304;9.816;2023-02-28T14:16:47;19.40;58.60
546;DHT22;259;53.304;9.816;2023-02-28T14:19:27;19.40;58.30
546;DHT22;259;53.304;9.816;2023-02-28T14:37:42;19.10;58.00
546;DHT22;259;53.304;9.816;2023-02-28T14:40:20;19.00;58.10
546;DHT22;259;53.304;9.816;2023-02-28T14:42:59;19.00;58.20
546;DHT22;259;53.304;9.816;2023-02-28T14:45:30;18.90;58.00
546;DHT22;259;53.304;9.816;2023-02-28T14:47:58;18.90;58.00
546;DHT22;259;53.304;9.816;2023-02-28T14:50:31;18.80;57.90
546;DHT22;259;53.304;9.816;2023-02-28T14:52:59;18.80;57.80
546;DHT22;259;53.304;9.816;2023-02-28T14:55:31;18.70;57.60
546;DHT22;259;53.304;9.816;2023-02-28T14:58:00;18.70;57.60
546;DHT22;259;53.304;9.816;2023-02-28T15:00:31;18.60;57.60
546;DHT22;259;53.304;9.816;2023-02-28T15:02:59;18.60;57.70
546;DHT22;259;53.304;9.816;2023-02-28T15:05:33;18.50;57.80
546;DHT22;259;53.304;9.816;2023-02-28T15:08:06;18.40;58.00
546;DHT22;259;53.304;9.816;2023-02-28T15:10:37;18.40;58.30
546;DHT22;259;53.304;9.816;2023-02-28T15:13:07;18.30;58.20
546;DHT22;259;53.304;9.816;2023-02-28T15:18:30;18.20;58.40
546;DHT22;259;53.304;9.816;2023-02-28T15:21:17;18.10;58.30
546;DHT22;259;53.304;9.816;2023-02-28T15:23:49;18.10;58.40
546;DHT22;259;53.304;9.816;2023-02-28T15:26:22;18.00;58.40
546;DHT22;259;53.304;9.816;2023-02-28T15:28:59;17.90;58.40
546;DHT22;259;53.304;9.816;2023-02-28T15:31:29;17.90;58.40
546;DHT22;259;53.304;9.816;2023-02-28T15:34:04;17.80;58.40
546;DHT22;259;53.304;9.816;2023-02-28T15:36:32;17.70;58.40
546;DHT22;259;53.304;9.816;2023-02-28T15:39:16;17.70;58.40
546;DHT22;259;53.304;9.816;2023-02-28T15:41:44;17.60;58.30
546;DHT22;259;53.304;9.816;2023-02-28T15:49:24;17.40;58.40
546;DHT22;259;53.304;9.816;2023-02-28T15:51:51;17.40;58.40
546;DHT22;259;53.304;9.816;2023-02-28T15:54:32;17.30;58.30
546;DHT22;259;53.304;9.816;2023-02-28T15:57:15;17.30;58.50
546;DHT22;259;53.304;9.816;2023-02-28T15:59:52;17.20;58.40
546;DHT22;259;53.304;9.816;2023-02-28T16:02:29;17.20;58.60
546;DHT22;259;53.304;9.816;2023-02-28T16:07:34;17.10;58.80
546;DHT22;259;53.304;9.816;2023-02-28T16:10:00;17.00;58.80
546;DHT22;259;53.304;9.816;2023-02-28T16:12:31;17.00;59.00
546;DHT22;259;53.304;9.816;2023-02-28T16:15:01;17.00;59.10
546;DHT22;259;53.304;9.816;2023-02-28T16:17:33;16.90;59.10
546;DHT22;259;53.304;9.816;2023-02-28T16:20:00;16.90;59.10
546;DHT22;259;53.304;9.816;2023-02-28T16:22:27;16.80;58.80
546;DHT22;259;53.304;9.816;2023-02-28T16:24:52;16.80;59.00
546;DHT22;259;53.304;9.816;2023-02-28T16:27:35;16.70;59.00
546;DHT22;259;53.304;9.816;2023-02-28T16:30:03;16.70;59.00
546;DHT22;259;53.304;9.816;2023-02-28T16:32:31;16.70;59.10
546;DHT22;259;53.304;9.816;2023-02-28T16:34:57;16.60;59.10
546;DHT22;259;53.304;9.816;2023-02-28T16:37:23;16.60;59.00
546;DHT22;259;53.304;9.816;2023-02-28T16:39:48;16.50;59.00
546;DHT22;259;53.304;9.816;2023-02-28T16:42:21;16.50;59.60
546;DHT22;259;53.304;9.816;2023-02-28T16:44:49;16.50;59.20
546;DHT22;259;53.304;9.816;2023-02-28T16:47:15;16.40;59.20
546;DHT22;259;53.304;9.816;2023-02-28T16:49:40;16.40;59.20
546;DHT22;259;53.304;9.816;2023-02-28T16:52:09;16.40;59.90
546;DHT22;259;53.304;9.816;2023-02-28T16:54:35;16.30;59.20
546;DHT22;259;53.304;9.816;2023-02-28T16:57:01;16.30;59.40
546;DHT22;259;53.304;9.816;2023-02-28T16:59:28;16.20;59.30
546;DHT22;259;53.304;9.816;2023-02-28T17:01:55;16.20;59.20
546;DHT22;259;53.304;9.816;2023-02-28T17:04:26;16.20;59.40
546;DHT22;259;53.304;9.816;2023-02-28T17:06:52;16.20;59.40
546;DHT22;259;53.304;9.816;2023-02-28T17:09:20;16.10;59.30
546;DHT22;259;53.304;9.816;2023-02-28T17:11:47;16.10;59.50
546;DHT22;259;53.304;9.816;2023-02-28T17:14:14;16.10;59.60
546;DHT22;259;53.304;9.816;2023-02-28T17:16:41;16.00;59.50
546;DHT22;259;53.304;9.816;2023-02-28T17:19:11;16.00;59.60
546;DHT22;259;53.304;9.816;2023-02-28T17:21:39;16.00;59.60
546;DHT22;259;53.304;9.816;2023-02-28T17:24:07;15.90;59.80
546;DHT22;259;53.304;9.816;2023-02-28T17:26:33;15.90;59.90
546;DHT22;259;53.304;9.816;2023-02-28T17:28:59;15.80;59.90
546;DHT22;259;53.304;9.816;2023-02-28T17:31:26;15.80;60.00
546;DHT22;259;53.304;9.816;2023-02-28T17:33:53;15.80;59.90
546;DHT22;259;53.304;9.816;2023-02-28T17:36:25;15.70;60.60
546;DHT22;259;53.304;9.816;2023-02-28T17:38:52;15.70;59.90
546;DHT22;259;53.304;9.816;2023-02-28T17:41:21;15.70;59.90
546;DHT22;259;53.304;9.816;2023-02-28T17:43:47;15.70;59.90
546;DHT22;259;53.304;9.816;2023-02-28T17:46:17;15.60;59.90
546;DHT22;259;53.304;9.816;2023-02-28T17:48:51;15.60;59.90
546;DHT22;259;53.304;9.816;2023-02-28T17:51:19;15.50;59.90
546;DHT22;259;53.304;9.816;2023-02-28T17:53:45;15.50;59.90
546;DHT22;259;53.304;9.816;2023-02-28T17:56:20;15.50;59.90
546;DHT22;259;53.304;9.816;2023-02-28T17:58:49;15.40;59.90
546;DHT22;259;53.304;9.816;2023-02-28T18:01:16;15.40;59.90
546;DHT22;259;53.304;9.816;2023-02-28T18:03:42;15.40;59.90
546;DHT22;259;53.304;9.816;2023-02-28T18:06:14;15.40;60.00
546;DHT22;259;53.304;9.816;2023-02-28T18:08:43;15.30;59.90
546;DHT22;259;53.304;9.816;2023-02-28T18:11:08;15.30;60.00
546;DHT22;259;53.304;9.816;2023-02-28T18:13:46;15.30;60.00
546;DHT22;259;53.304;9.816;2023-02-28T18:16:13;15.30;60.00
546;DHT22;259;53.304;9.816;2023-02-28T18:18:40;15.20;60.00
546;DHT22;259;53.304;9.816;2023-02-28T18:21:08;15.20;60.00
546;DHT22;259;53.304;9.816;2023-02-28T18:23:35;15.10;59.90
546;DHT22;259;53.304;9.816;2023-02-28T18:26:04;15.10;60.00
546;DHT22;259;53.304;9.816;2023-02-28T18:28:31;15.10;60.00
546;DHT22;259;53.304;9.816;2023-02-28T18:31:05;15.00;60.00
546;DHT22;259;53.304;9.816;2023-02-28T18:33:31;15.00;59.90
546;DHT22;259;53.304;9.816;2023-02-28T18:35:57;15.00;60.00
546;DHT22;259;53.304;9.816;2023-02-28T18:38:23;15.00;60.10
546;DHT22;259;53.304;9.816;2023-02-28T18:40:54;14.90;60.00
546;DHT22;259;53.304;9.816;2023-02-28T18:43:21;14.90;60.00
546;DHT22;259;53.304;9.816;2023-02-28T18:45:47;14.90;60.00
546;DHT22;259;53.304;9.816;2023-02-28T18:48:12;14.80;60.00
546;DHT22;259;53.304;9.816;2023-02-28T18:50:39;14.80;60.00
546;DHT22;259;53.304;9.816;2023-02-28T18:53:06;14.80;60.10
546;DHT22;259;53.304;9.816;2023-02-28T18:55:32;14.70;60.00
546;DHT22;259;53.304;9.816;2023-02-28T18:57:58;14.70;60.00
546;DHT22;259;53.304;9.816;2023-02-28T19:00:24;14.70;60.00
546;DHT22;259;53.304;9.816;2023-02-28T19:02:51;14.70;60.00
546;DHT22;259;53.304;9.816;2023-02-28T19:05:18;14.60;60.00
546;DHT22;259;53.304;9.816;2023-02-28T19:07:44;14.60;60.00
546;DHT22;259;53.304;9.816;2023-02-28T19:10:11;14.60;60.00
546;DHT22;259;53.304;9.816;2023-02-28T19:12:38;14.50;60.00
546;DHT22;259;53.304;9.816;2023-02-28T19:15:05;14.60;60.20
546;DHT22;259;53.304;9.816;2023-02-28T19:17:32;14.50;60.20
546;DHT22;259;53.304;9.816;2023-02-28T19:19:58;14.50;60.20
546;DHT22;259;53.304;9.816;2023-02-28T19:22:24;14.40;60.00
546;DHT22;259;53.304;9.816;2023-02-28T19:24:50;14.40;60.10